Time,TemperatureF,DewpointF,PressureIn,WindDirection,WindDirectionDegrees,WindSpeedMPH,WindSpeedGustMPH,Humidity,HourlyPrecipIn,Conditions,Clouds,dailyrainin,SoftwareType,DateUTC
2013-04-01 00:15:00,39.2,29.9,29.70,North,0,0.0,0.0,69,0.00,,,0.00,VWS V14.00,2013-04-01 04:15:00,
2013-04-01 00:30:00,38.5,29.2,29.70,North,0,0.0,0.0,69,0.00,,,0.00,VWS V14.00,2013-04-01 04:30:00,
2013-04-01 00:45:00,37.2,27.6,29.70,North,0,0.0,0.0,68,0.00,,,0.00,VWS V14.00,2013-04-01 04:45:00,
2013-04-01 01:00:00,37.4,28.5,29.70,North,0,0.0,0.0,70,0.00,,,0.00,VWS V14.00,2013-04-01 05:00:00,
2013-04-01 01:15:00,38.8,30.9,29.70,North,0,0.0,0.0,73,0.00,,,0.00,VWS V14.00,2013-04-01 05:15:00,
2013-04-01 01:30:00,39.7,31.8,29.70,North,0,0.0,0.0,73,0.00,,,0.00,VWS V14.00,2013-04-01 05:30:00,
2013-04-01 01:45:00,41.2,33.9,29.70,North,0,0.0,0.0,75,0.00,,,0.00,VWS V14.00,2013-04-01 05:45:00,
2013-04-01 02:00:00,40.6,33.3,29.70,North,0,0.0,0.0,75,0.00,,,0.00,VWS V14.00,2013-04-01 06:00:00,
2013-04-01 02:15:00,41.0,33.7,29.70,North,0,0.0,0.0,75,0.00,,,0.00,VWS V14.00,2013-04-01 06:15:00,
2013-04-01 02:30:00,41.5,34.5,29.70,North,0,0.0,0.0,76,0.00,,,0.00,VWS V14.00,2013-04-01 06:30:00,
2013-04-01 02:45:00,41.5,34.5,29.70,North,0,0.0,0.0,76,0.00,,,0.00,VWS V14.00,2013-04-01 06:45:00,
2013-04-01 03:00:00,41.5,34.5,29.70,North,0,0.0,0.0,76,0.00,,,0.00,VWS V14.00,2013-04-01 07:00:00,
2013-04-01 03:15:00,41.5,34.5,29.70,North,0,0.0,0.0,76,0.00,,,0.00,VWS V14.00,2013-04-01 07:15:00,
2013-04-01 03:30:00,41.5,34.9,29.70,North,0,0.0,0.0,77,0.00,,,0.00,VWS V14.00,2013-04-01 07:30:00,
2013-04-01 03:45:00,41.5,34.9,29.70,North,0,0.0,0.0,77,0.00,,,0.00,VWS V14.00,2013-04-01 07:45:00,
2013-04-01 04:00:00,41.4,34.7,29.70,North,0,0.0,0.0,77,0.00,,,0.00,VWS V14.00,2013-04-01 08:00:00,
2013-04-01 04:15:00,41.4,34.7,29.70,North,0,0.0,0.0,77,0.00,,,0.00,VWS V14.00,2013-04-01 08:15:00,
2013-04-01 04:30:00,41.4,34.7,29.70,North,0,0.0,0.0,77,0.00,,,0.00,VWS V14.00,2013-04-01 08:30:00,
2013-04-01 04:45:00,41.4,35.0,29.67,North,0,0.0,0.0,78,0.00,,,0.00,VWS V14.00,2013-04-01 08:45:00,
2013-04-01 05:00:00,41.5,35.2,29.67,North,0,0.0,0.0,78,0.00,,,0.00,VWS V14.00,2013-04-01 09:00:00,
2013-04-01 05:15:00,41.5,35.2,29.70,North,0,0.0,0.0,78,0.00,,,0.00,VWS V14.00,2013-04-01 09:15:00,
2013-04-01 05:30:00,41.7,35.7,29.70,North,0,0.0,0.0,79,0.00,,,0.00,VWS V14.00,2013-04-01 09:30:00,
2013-04-01 05:45:00,41.7,36.0,29.67,North,0,0.0,0.0,80,0.00,,,0.00,VWS V14.00,2013-04-01 09:45:00,
2013-04-01 06:00:00,41.7,36.3,29.67,North,0,0.0,0.0,81,0.00,,,0.00,VWS V14.00,2013-04-01 10:00:00,
2013-04-01 06:15:00,41.9,36.5,29.67,North,0,0.0,0.0,81,0.00,,,0.00,VWS V14.00,2013-04-01 10:15:00,
2013-04-01 06:30:00,42.1,37.3,29.67,North,0,0.0,0.0,83,0.00,,,0.00,VWS V14.00,2013-04-01 10:30:00,
2013-04-01 06:45:00,42.3,37.8,29.67,North,0,0.0,0.0,84,0.00,,,0.00,VWS V14.00,2013-04-01 10:45:00,
2013-04-01 07:00:00,42.3,38.1,29.67,North,0,0.0,0.0,85,0.00,,,0.00,VWS V14.00,2013-04-01 11:00:00,
2013-04-01 07:15:00,42.3,38.4,29.67,North,0,0.0,0.0,86,0.00,,,0.00,VWS V14.00,2013-04-01 11:15:00,
2013-04-01 07:30:00,42.8,39.2,29.70,North,0,0.0,0.0,87,0.00,,,0.00,VWS V14.00,2013-04-01 11:30:00,
2013-04-01 07:45:00,43.0,39.4,29.70,North,0,0.0,0.0,87,0.00,,,0.00,VWS V14.00,2013-04-01 11:45:00,
2013-04-01 08:00:00,43.7,40.1,29.70,North,0,0.0,0.0,87,0.00,,,0.00,VWS V14.00,2013-04-01 12:00:00,
2013-04-01 08:15:00,44.2,40.9,29.70,North,0,0.0,0.0,88,0.00,,,0.00,VWS V14.00,2013-04-01 12:15:00,
2013-04-01 08:30:00,45.3,42.0,29.70,North,0,0.0,0.0,88,0.00,,,0.00,VWS V14.00,2013-04-01 12:30:00,
2013-04-01 08:45:00,46.0,43.0,29.70,North,0,0.0,0.0,89,0.00,,-RA,0.00,VWS V14.00,2013-04-01 12:45:00,
2013-04-01 09:00:00,46.4,42.8,29.70,North,0,0.0,0.0,87,0.00,,-RA,0.00,VWS V14.00,2013-04-01 13:00:00,
2013-04-01 09:15:00,46.6,42.6,29.70,North,0,0.0,0.0,86,0.00,,-RA,0.00,VWS V14.00,2013-04-01 13:15:00,
2013-04-01 09:30:00,46.8,41.6,29.70,North,0,0.0,0.0,82,0.00,,-RA,0.00,VWS V14.00,2013-04-01 13:30:00,
2013-04-01 09:45:00,47.7,39.8,29.70,North,0,0.0,0.0,74,0.00,,CLR,0.00,VWS V14.00,2013-04-01 13:45:00,
2013-04-01 10:01:00,47.8,37.4,29.70,North,0,0.0,0.0,67,0.00,,CLR,0.00,VWS V14.00,2013-04-01 14:01:00,
2013-04-01 10:15:00,45.9,28.3,29.70,North,0,0.0,0.0,50,0.00,,CLR,0.00,VWS V14.00,2013-04-01 14:15:00,
2013-04-01 10:30:00,46.0,28.0,29.70,North,0,0.0,0.0,49,0.00,,CLR,0.00,VWS V14.00,2013-04-01 14:30:00,
2013-04-01 10:45:00,47.8,27.5,29.73,North,0,0.0,0.0,45,0.00,,OVC070,0.00,VWS V14.00,2013-04-01 14:45:00,
2013-04-01 11:00:00,51.3,20.9,29.73,North,0,0.0,0.0,30,0.00,,OVC070,0.00,VWS V14.00,2013-04-01 15:00:00,
2013-04-01 11:15:00,49.5,16.9,29.73,North,0,0.0,0.0,27,0.00,,OVC070,0.00,VWS V14.00,2013-04-01 15:15:00,
2013-04-01 11:30:00,48.0,15.6,29.73,North,0,0.0,0.0,27,0.00,,OVC070,0.00,VWS V14.00,2013-04-01 15:30:00,
2013-04-01 11:45:00,48.0,15.6,29.76,North,0,0.0,0.0,27,0.00,,-RA,0.00,VWS V14.00,2013-04-01 15:45:00,
2013-04-01 12:00:00,50.7,15.3,29.76,North,0,0.0,0.0,24,0.00,,-RA,0.00,VWS V14.00,2013-04-01 16:00:00,
2013-04-01 12:15:00,50.2,11.8,29.76,North,0,0.0,0.0,21,0.00,,-RA,0.00,VWS V14.00,2013-04-01 16:15:00,
2013-04-01 12:30:00,49.3,8.8,29.76,North,0,0.0,0.0,19,0.00,,-RA,0.00,VWS V14.00,2013-04-01 16:30:00,
2013-04-01 12:45:00,51.4,10.6,29.76,North,0,0.0,0.0,19,0.00,,SCT100,0.00,VWS V14.00,2013-04-01 16:45:00,
2013-04-01 13:00:00,50.7,10.0,29.76,North,0,0.0,0.0,19,0.00,,SCT100,0.00,VWS V14.00,2013-04-01 17:00:00,
2013-04-01 13:15:00,49.6,9.1,29.76,North,0,0.0,0.0,19,0.00,,SCT100,0.00,VWS V14.00,2013-04-01 17:15:00,
2013-04-01 13:30:00,48.0,7.7,29.76,North,0,0.0,0.0,19,0.00,,SCT100,0.00,VWS V14.00,2013-04-01 17:30:00,
2013-04-01 13:45:00,48.7,8.3,29.76,North,0,0.0,0.0,19,0.00,,SCT100,0.00,VWS V14.00,2013-04-01 17:45:00,
2013-04-01 14:00:00,48.2,7.9,29.79,North,0,0.0,0.0,19,0.00,,SCT100,0.00,VWS V14.00,2013-04-01 18:00:00,
2013-04-01 14:15:00,47.7,7.4,29.79,North,0,0.0,0.0,19,0.00,,SCT100,0.00,VWS V14.00,2013-04-01 18:15:00,
2013-04-01 14:30:00,46.0,7.2,29.79,North,0,0.0,0.0,20,0.00,,SCT100,0.00,VWS V14.00,2013-04-01 18:30:00,
2013-04-01 14:45:00,47.1,7.0,29.79,North,0,0.0,0.0,19,0.00,,SCT100,0.00,VWS V14.00,2013-04-01 18:45:00,
2013-04-01 15:00:00,46.6,6.5,29.79,North,0,0.0,0.0,19,0.00,,SCT100,0.00,VWS V14.00,2013-04-01 19:00:00,
2013-04-01 15:15:00,45.3,6.6,29.79,North,0,0.0,0.0,20,0.00,,OVC065,0.00,VWS V14.00,2013-04-01 19:15:00,
2013-04-01 15:30:00,47.5,7.3,29.79,North,0,0.0,0.0,19,0.00,,OVC065,0.00,VWS V14.00,2013-04-01 19:30:00,
2013-04-01 15:45:00,48.4,8.0,29.79,North,0,0.0,0.0,19,0.00,,BKN075,0.00,VWS V14.00,2013-04-01 19:45:00,
2013-04-01 16:00:00,50.5,9.8,29.79,North,0,0.0,0.0,19,0.00,,BKN075,0.00,VWS V14.00,2013-04-01 20:00:00,
2013-04-01 16:15:00,46.6,6.5,29.79,North,0,0.0,0.0,19,0.00,,BKN075,0.00,VWS V14.00,2013-04-01 20:15:00,
2013-04-01 16:30:00,48.7,8.3,29.79,North,0,0.0,0.0,19,0.00,,BKN075,0.00,VWS V14.00,2013-04-01 20:30:00,
2013-04-01 16:45:00,48.4,8.0,29.79,North,0,0.0,0.0,19,0.00,,OVC080,0.00,VWS V14.00,2013-04-01 20:45:00,
2013-04-01 17:00:00,47.8,7.6,29.79,North,0,0.0,0.0,19,0.00,,OVC080,0.00,VWS V14.00,2013-04-01 21:00:00,
2013-04-01 17:15:00,48.7,8.3,29.79,North,0,0.0,0.0,19,0.00,,OVC080,0.00,VWS V14.00,2013-04-01 21:15:00,
2013-04-01 17:30:00,47.5,7.3,29.82,North,0,0.0,0.0,19,0.00,,OVC080,0.00,VWS V14.00,2013-04-01 21:30:00,
2013-04-01 17:45:00,46.6,6.5,29.82,North,0,0.0,0.0,19,0.00,,FEW070,0.00,VWS V14.00,2013-04-01 21:45:00,
2013-04-01 18:00:00,46.0,7.2,29.82,North,0,0.0,0.0,20,0.00,,FEW070,0.00,VWS V14.00,2013-04-01 22:00:00,
2013-04-01 18:15:00,45.7,6.9,29.82,North,0,0.0,0.0,20,0.00,,FEW070,0.00,VWS V14.00,2013-04-01 22:15:00,
2013-04-01 18:30:00,45.1,6.5,29.82,North,0,0.0,0.0,20,0.00,,FEW070,0.00,VWS V14.00,2013-04-01 22:30:00,
2013-04-01 18:45:00,43.7,5.3,29.85,North,0,0.0,0.0,20,0.00,,SCT085,0.00,VWS V14.00,2013-04-01 22:45:00,
2013-04-01 19:00:00,43.0,4.7,29.85,North,0,0.0,0.0,20,0.00,,SCT085,0.00,VWS V14.00,2013-04-01 23:00:00,
2013-04-01 19:15:00,42.3,5.1,29.85,North,0,0.0,0.0,21,0.00,,SCT085,0.00,VWS V14.00,2013-04-01 23:15:00,
2013-04-01 19:30:00,41.2,4.2,29.85,North,0,0.0,0.0,21,0.00,,SCT085,0.00,VWS V14.00,2013-04-01 23:30:00,
2013-04-01 19:45:00,40.3,3.5,29.88,North,0,0.0,0.0,21,0.00,,SCT085,0.00,VWS V14.00,2013-04-01 23:45:00,
2013-04-01 20:00:00,39.9,3.2,29.88,North,0,0.0,0.0,21,0.00,,SCT085,0.00,VWS V14.00,2013-04-02 00:00:00,
2013-04-01 20:15:00,39.4,2.7,29.88,North,0,0.0,0.0,21,0.00,,SCT085,0.00,VWS V14.00,2013-04-02 00:15:00,
2013-04-01 20:30:00,38.7,2.1,29.88,North,0,0.0,0.0,21,0.00,,CLR,0.00,VWS V14.00,2013-04-02 00:30:00,
2013-04-01 20:45:00,38.3,1.8,29.91,North,0,0.0,0.0,21,0.00,,CLR,0.00,VWS V14.00,2013-04-02 00:45:00,
2013-04-01 21:00:00,37.9,1.5,29.91,North,0,0.0,0.0,21,0.00,,CLR,0.00,VWS V14.00,2013-04-02 01:00:00,
2013-04-01 21:15:00,37.4,1.0,29.91,North,0,0.0,0.0,21,0.00,,CLR,0.00,VWS V14.00,2013-04-02 01:15:00,
2013-04-01 21:30:00,37.0,1.7,29.91,North,0,0.0,0.0,22,0.00,,CLR,0.00,VWS V14.00,2013-04-02 01:30:00,
2013-04-01 21:45:00,36.3,1.1,29.94,North,0,0.0,0.0,22,0.00,,CLR,0.00,VWS V14.00,2013-04-02 01:45:00,
2013-04-01 22:01:00,35.4,0.4,29.94,North,0,0.0,0.0,22,0.00,,CLR,0.00,VWS V14.00,2013-04-02 02:01:00,
2013-04-01 22:15:00,35.6,0.5,29.94,North,0,0.0,0.0,22,0.00,,CLR,0.00,VWS V14.00,2013-04-02 02:15:00,
2013-04-01 22:30:00,34.9,-0.1,29.94,North,0,0.0,0.0,22,0.00,,CLR,0.00,VWS V14.00,2013-04-02 02:30:00,
2013-04-01 22:44:00,34.9,-0.1,29.94,North,0,0.0,0.0,22,0.00,,CLR,0.00,VWS V14.00,2013-04-02 02:44:00,
2013-04-01 23:00:00,34.9,-0.1,29.94,North,0,0.0,0.0,22,0.00,,CLR,0.00,VWS V14.00,2013-04-02 03:00:00,
2013-04-01 23:14:00,34.3,-0.6,29.94,North,0,0.0,0.0,22,0.00,,CLR,0.00,VWS V14.00,2013-04-02 03:14:00,
2013-04-01 23:29:00,34.0,-0.9,29.94,North,0,0.0,0.0,22,0.00,,CLR,0.00,VWS V14.00,2013-04-02 03:29:00,
2013-04-01 23:44:00,33.6,-0.2,29.94,North,0,0.0,0.0,23,0.00,,CLR,0.00,VWS V14.00,2013-04-02 03:44:00,